Latest Weather Observations for Horsley Park

IDN60901

Issued at 5:51 pm EDT Wednesday 4 March 2015 (issued every 10 minutes, with the page automatically refreshed every 10 minutes)

About weather observations | Map of Sydney area stations | Latest observations for Sydney area | Other Formats
Station Details ID: 067119 Name: HORSLEY PARK EQUESTRIAN CENTRE AWS Lat: -33.85 Lon: 150.86 Height: 100.0 m
Data from the previous 72 hours. | See also: Recent months at Horsley Park
Date/Time
EDT
Tmp

°C
App
Tmp
°C
Dew
Point
°C
Rel
Hum
%
Delta-T

°C
Wind Press
QNH
hPa
Press
MSL
hPa
Rain
since
9 am
mm
Dir
 
Spd
km/h
Gust
km/h
Spd
kts
Gust
kts
04/05:30pm 28.8 29.8 18.6 54 6.6 E 11 19 6 10 - - 0.0
04/05:00pm 29.2 30.5 19.2 54 6.5 E 11 19 6 10 - - 0.0
04/04:30pm 29.6 31.0 18.7 52 7.1 SE 9 19 5 10 - - 0.0
04/04:00pm 29.9 31.6 18.0 48 7.6 SE 6 17 3 9 - - 0.0
04/03:30pm 29.0 30.1 18.1 51 7.0 ENE 9 19 5 10 - - 0.0
04/03:00pm 29.2 31.6 18.9 53 6.7 NNE 4 11 2 6 - - 0.0
04/02:30pm 27.9 29.0 18.9 58 5.8 ESE 11 17 6 9 - - 0.0
04/02:00pm 28.6 31.1 19.8 59 5.8 ENE 6 13 3 7 - - 0.0
04/01:30pm 27.4 29.4 18.7 59 5.6 SSE 6 7 3 4 - - 0.0
04/01:00pm 27.5 29.6 19.3 61 5.3 SE 7 15 4 8 - - 0.0
04/12:30pm 26.2 29.1 18.3 61 5.0 CALM 0 2 0 1 - - 0.0
04/12:00pm 25.3 27.6 18.5 66 4.3 NNW 4 7 2 4 - - 0.0
04/11:30am 25.5 28.6 19.6 70 3.8 WSW 2 6 1 3 - - 0.0
04/11:00am 24.7 26.8 18.9 70 3.7 WSW 6 9 3 5 - - 0.0
04/10:30am 24.4 26.7 18.6 70 3.7 SSE 4 7 2 4 - - 0.0
04/10:00am 24.2 27.4 18.8 72 3.4 CALM 0 4 0 2 - - 0.0
04/09:30am 23.6 26.9 19.1 76 2.9 CALM 0 0 0 0 - - 0.0
04/09:00am 22.8 25.0 18.3 76 2.8 SW 4 6 2 3 - - 0.0
04/08:30am 21.7 24.4 17.7 78 2.5 CALM 0 0 0 0 - - 0.0
04/08:00am 20.9 23.0 18.1 84 1.7 SW 4 9 2 5 - - 0.0
04/07:30am 20.0 22.0 17.8 87 1.4 WSW 4 6 2 3 - - 0.0
04/07:00am 19.9 22.1 17.5 86 1.5 WSW 2 6 1 3 - - 0.0
04/06:30am 19.9 22.4 17.3 85 1.6 CALM 0 0 0 0 - - 0.0
04/05:30am 20.2 22.4 17.4 84 1.7 SSE 2 6 1 3 - - 0.0
04/05:00am 20.3 21.7 17.3 83 1.8 S 6 7 3 4 - - 0.0
04/04:30am 20.3 21.7 17.3 83 1.8 S 6 7 3 4 - - 0.0
04/04:00am 20.5 22.7 17.5 83 1.8 SSW 2 6 1 3 - - 0.0
04/03:30am 20.6 21.9 17.6 83 1.9 SSE 7 9 4 5 - - 0.0
04/03:00am 20.7 22.0 17.5 82 2.0 S 7 13 4 7 - - 0.0
04/02:30am 20.9 22.3 17.7 82 2.0 S 7 11 4 6 - - 0.0
04/02:00am 20.8 22.3 17.6 82 2.0 S 6 7 3 4 - - 0.0
04/01:30am 20.8 22.1 17.6 82 2.0 S 7 11 4 6 - - 0.0
04/01:00am 20.6 21.8 17.4 82 2.0 S 7 11 4 6 - - 0.0
04/12:30am 20.4 21.5 17.0 81 2.1 S 7 9 4 5 - - 0.0
 
Date/Time
EDT
Tmp

°C
App
Tmp
°C
Dew
Point
°C
Rel
Hum
%
Delta-T

°C
Wind Press
QNH
hPa
Press
MSL
hPa
Rain
since
9 am
mm
Dir
 
Spd
km/h
Gust
km/h
Spd
kts
Gust
kts
03/11:30pm 20.6 21.9 17.0 80 2.2 SSW 6 7 3 4 - - 0.0
03/11:00pm 20.7 22.5 17.3 81 2.1 SSE 4 6 2 3 - - 0.0
03/10:30pm 21.2 23.3 17.2 78 2.5 SE 2 4 1 2 - - 0.0
03/10:00pm 21.3 23.7 17.1 77 2.6 CALM 0 0 0 0 - - 0.0
03/09:30pm 21.4 23.8 17.0 76 2.7 CALM 0 0 0 0 - - 0.0
03/09:00pm 21.7 23.2 16.6 73 3.1 SE 4 6 2 3 - - 0.0
03/08:30pm 21.8 23.2 16.5 72 3.2 ESE 4 6 2 3 - - 0.0
03/08:00pm 22.0 23.4 16.3 70 3.5 SE 4 7 2 4 - - 0.0
03/07:30pm 22.3 23.0 16.1 68 3.8 ESE 7 11 4 6 - - 0.0
03/07:00pm 22.7 22.6 16.0 66 4.1 ESE 11 17 6 9 - - 0.0
03/06:30pm 23.1 22.6 15.9 64 4.4 ESE 13 19 7 10 - - 0.0
03/06:00pm 23.1 21.8 15.7 63 4.5 ESE 17 24 9 13 - - 0.0
03/05:30pm 23.3 21.5 15.6 62 4.6 ESE 19 26 10 14 - - 0.0
03/05:00pm 24.2 22.6 15.9 59 5.1 ESE 19 26 10 14 - - 0.0
03/04:30pm 24.8 23.0 16.0 58 5.4 ESE 20 28 11 15 - - 0.0
03/04:00pm 26.2 25.0 16.2 54 6.2 E 17 28 9 15 - - 0.0
03/03:30pm 28.3 27.9 16.2 47 7.5 ESE 13 19 7 10 - - 0.0
03/03:00pm 30.1 30.8 16.1 42 8.7 NE 7 15 4 8 - - 0.0
03/02:30pm 29.8 30.7 16.6 45 8.3 NNE 7 13 4 7 - - 0.0
03/02:00pm 28.5 28.7 14.3 41 8.6 N 6 9 3 5 - - 0.0
03/01:30pm 28.0 28.0 14.3 43 8.3 N 7 13 4 7 - - 0.0
03/01:00pm 27.2 27.6 15.2 47 7.3 NE 7 15 4 8 - - 0.0
03/12:30pm 27.3 28.4 15.7 49 7.1 N 4 11 2 6 - - 0.0
03/12:00pm 25.6 26.0 14.7 51 6.5 NE 6 11 3 6 - - 0.0
03/11:30am 24.6 23.7 13.8 51 6.4 N 11 17 6 9 - - 0.0
03/11:00am 24.0 22.5 13.2 50 6.3 N 13 24 7 13 - - 0.0
03/10:30am 22.9 21.1 13.4 55 5.5 NNE 15 20 8 11 - - 0.0
03/10:00am 22.4 21.4 13.5 57 5.2 N 11 20 6 11 - - 0.0
03/09:30am 21.0 20.5 13.7 63 4.2 N 9 13 5 7 - - 0.0
03/09:00am 19.6 19.9 14.6 73 2.9 NW 6 7 3 4 - - 0.0
03/08:30am 17.9 18.2 14.6 81 1.9 NW 6 6 3 3 - - 0.0
03/08:00am 16.6 17.4 14.8 89 1.0 NNW 4 6 2 3 - - 0.0
03/07:30am 15.4 16.3 14.1 92 0.7 NNW 2 4 1 2 - - 0.0
03/07:00am 14.4 15.0 13.1 92 0.7 NW 2 4 1 2 - - 0.0
03/06:30am 14.0 14.8 12.6 91 0.8 CALM 0 0 0 0 - - 0.0
03/06:00am 14.1 14.9 12.5 90 0.9 CALM 0 4 0 2 - - 0.0
03/05:30am 14.5 15.3 12.7 89 1.0 CALM 0 0 0 0 - - 0.0
03/05:00am 14.5 15.4 12.9 90 0.9 CALM 0 0 0 0 - - 0.0
03/04:30am 14.8 15.6 12.7 87 1.2 CALM 0 0 0 0 - - 0.0
03/04:00am 15.4 16.5 13.4 88 1.1 CALM 0 0 0 0 - - 0.0
03/03:30am 15.4 16.4 13.2 87 1.2 CALM 0 0 0 0 - - 0.0
03/03:00am 15.4 16.3 12.9 85 1.4 CALM 0 0 0 0 - - 0.0
03/02:30am 15.9 17.0 13.4 85 1.4 CALM 0 0 0 0 - - 0.0
03/02:00am 16.8 17.8 13.3 80 2.0 CALM 0 0 0 0 - - 0.0
03/01:30am 17.7 18.8 13.6 77 2.3 CALM 0 0 0 0 - - 0.0
03/01:00am 18.7 19.9 13.8 73 2.8 CALM 0 0 0 0 - - 0.0
03/12:30am 18.7 19.9 13.8 73 2.8 CALM 0 0 0 0 - - 0.0
03/12:00am 18.5 19.7 13.8 74 2.7 CALM 0 0 0 0 - - 0.0
 
Date/Time
EDT
Tmp

°C
App
Tmp
°C
Dew
Point
°C
Rel
Hum
%
Delta-T

°C
Wind Press
QNH
hPa
Press
MSL
hPa
Rain
since
9 am
mm
Dir
 
Spd
km/h
Gust
km/h
Spd
kts
Gust
kts
02/11:30pm 18.1 19.3 13.8 76 2.5 CALM 0 0 0 0 - - 0.0
02/11:00pm 17.9 19.2 14.2 79 2.1 CALM 0 0 0 0 - - 0.0
02/10:30pm 17.0 18.2 13.7 81 1.9 CALM 0 0 0 0 - - 0.0
02/10:00pm 17.4 18.4 13.1 76 2.4 CALM 0 0 0 0 - - 0.0
02/09:30pm 17.6 17.7 12.7 73 2.7 NE 4 6 2 3 - - 0.0
02/09:00pm 19.2 18.8 12.5 65 3.8 ENE 6 9 3 5 - - 0.0
02/08:30pm 19.6 19.0 12.4 63 4.0 ENE 7 9 4 5 - - 0.0
02/08:00pm 20.3 19.3 12.3 60 4.5 ENE 9 13 5 7 - - 0.0
02/07:30pm 20.9 20.4 12.6 59 4.7 NE 7 13 4 7 - - 0.0
02/07:00pm 21.3 20.9 13.0 59 4.8 E 7 13 4 7 - - 0.0
02/06:30pm 21.4 20.3 13.1 59 4.8 ENE 11 15 6 8 - - 0.0
02/06:00pm 21.4 20.2 12.8 58 4.9 ENE 11 17 6 9 - - 0.0
02/05:30pm 21.4 20.0 13.3 60 4.7 ENE 13 19 7 10 - - 0.0
02/05:00pm 22.0 21.4 14.6 63 4.4 ESE 11 17 6 9 - - 0.0
02/04:30pm 22.4 22.5 15.5 65 4.1 ESE 9 13 5 7 - - 0.0
02/04:00pm 21.3 21.3 15.2 68 3.6 ESE 9 15 5 8 - - 0.0
02/03:30pm 21.6 21.4 14.7 65 4.1 E 9 13 5 7 - - 0.0
02/03:00pm 21.9 21.3 14.5 63 4.4 ESE 11 17 6 9 - - 0.0
02/02:30pm 22.6 22.5 15.0 62 4.5 ESE 9 17 5 9 - - 0.0
02/02:00pm 22.5 22.5 15.1 63 4.4 SE 9 19 5 10 - - 0.0
02/01:30pm 22.2 22.0 14.6 62 4.5 SSE 9 17 5 9 - - 0.0
02/01:00pm 22.4 21.7 14.3 60 4.8 SE 11 17 6 9 - - 0.0
02/12:30pm 22.2 21.9 14.3 61 4.6 SE 9 13 5 7 - - 0.0
02/12:00pm 22.0 21.0 13.4 58 5.0 ESE 11 20 6 11 - - 0.0
02/11:30am 22.7 22.3 14.0 58 5.1 SE 9 17 5 9 - - 0.0
02/11:00am 22.2 22.2 14.1 60 4.7 S 7 13 4 7 - - 0.0
02/10:30am 21.5 21.7 14.2 63 4.3 SSW 6 13 3 7 - - 0.0
02/10:00am 20.3 19.9 13.0 63 4.2 SSW 7 13 4 7 - - 0.0
02/09:30am 19.2 18.3 12.5 65 3.8 SW 9 17 5 9 - - 0.0
02/09:00am 18.4 17.0 12.2 67 3.5 SSW 11 17 6 9 - - 1.6
02/08:30am 17.6 16.0 11.6 68 3.3 SW 11 15 6 8 - - 1.6
02/08:00am 17.2 15.5 11.2 68 3.3 SW 11 20 6 11 - - 1.6
02/07:30am 17.0 14.8 10.8 67 3.3 SW 13 22 7 12 - - 1.6
02/07:00am 16.7 15.0 11.2 70 3.0 SW 11 19 6 10 - - 1.6
02/06:30am 16.2 14.7 10.7 70 2.9 SW 9 15 5 8 - - 1.6
02/06:00am 16.4 14.5 10.5 68 3.1 SW 11 15 6 8 - - 1.6
02/05:30am 17.0 14.7 10.6 66 3.4 SW 13 20 7 11 - - 1.6
02/05:00am 17.5 16.2 11.1 66 3.5 SW 9 15 5 8 - - 1.6
02/04:30am 17.5 16.6 11.3 67 3.4 SW 7 13 4 7 - - 1.6
02/04:00am 17.6 16.0 11.4 67 3.4 SSW 11 17 6 9 - - 1.6
02/03:30am 18.0 16.5 11.8 67 3.4 SSW 11 15 6 8 - - 1.6
02/03:00am 18.3 16.8 11.8 66 3.6 SW 11 17 6 9 - - 1.6
02/02:30am 18.6 17.1 11.9 65 3.7 SW 11 15 6 8 - - 1.6
02/02:00am 18.9 17.8 11.9 64 3.9 SSW 9 15 5 8 - - 1.6
02/01:30am 18.9 17.4 11.9 64 3.9 SSW 11 19 6 10 - - 1.6
02/01:00am 19.1 18.1 12.4 65 3.8 S 9 19 5 10 - - 1.6
02/12:30am 19.4 18.2 12.7 65 3.8 S 11 20 6 11 - - 1.6
02/12:00am 19.4 17.7 12.4 64 3.9 S 13 24 7 13 - - 1.6
 
Date/Time
EDT
Tmp

°C
App
Tmp
°C
Dew
Point
°C
Rel
Hum
%
Delta-T

°C
Wind Press
QNH
hPa
Press
MSL
hPa
Rain
since
9 am
mm
Dir
 
Spd
km/h
Gust
km/h
Spd
kts
Gust
kts
01/11:30pm 19.7 18.5 12.9 65 3.9 S 11 20 6 11 - - 1.6
01/11:00pm 19.9 18.7 12.7 63 4.1 S 11 22 6 12 - - 1.6
01/10:30pm 19.9 18.0 13.1 65 3.9 S 15 24 8 13 - - 1.6
01/10:00pm 19.9 18.6 13.6 67 3.6 S 13 30 7 16 - - 1.6
01/09:30pm 19.9 18.0 14.3 70 3.3 S 17 26 9 14 - - 1.6
01/09:00pm 19.7 18.4 14.9 74 2.8 SSW 15 22 8 12 - - 1.6
01/08:30pm 19.5 18.7 15.2 76 2.5 S 13 22 7 12 - - 1.6
01/08:00pm 19.3 18.2 15.4 78 2.3 S 15 26 8 14 - - 1.6
01/07:30pm 18.8 17.2 16.0 84 1.7 S 19 30 10 16 - - 1.6
01/07:00pm 20.1 16.8 16.1 78 2.4 S 28 48 15 26 - - 1.4
01/06:56pm 20.1 16.8 16.1 78 2.4 S 28 48 15 26 - - 1.4
01/06:30pm 20.8 19.1 17.2 80 2.2 SSE 22 37 12 20 - - 1.4
01/06:00pm 21.8 22.1 18.8 83 1.9 SE 15 26 8 14 - - 1.4

Latest Capital City Observations: Canberra | Sydney | Melbourne | Brisbane | Adelaide | Perth | Hobart | Darwin

Other Formats:

Comma delimited format used in spreadsheet applications
http://www.bom.gov.au/fwo/IDN60901/IDN60901.94760.axf

JavaScript Object Notation format (JSON) in row-major order
http://www.bom.gov.au/fwo/IDN60901/IDN60901.94760.json